Time,TemperatureF,DewpointF,PressureIn,WindDirection,WindDirectionDegrees,WindSpeedMPH,WindSpeedGustMPH,Humidity,HourlyPrecipIn,Conditions,Clouds,dailyrainin,SoftwareType,DateUTC
2013-07-05 00:00:00,67.8,64.8,30.06,SE,127,0.0,1.0,90,0.00,,---,0.00,VWS V14.00,2013-07-05 04:00:00,
2013-07-05 00:01:00,67.8,64.8,30.06,SE,127,0.0,1.0,90,0.00,,---,0.00,VWS V14.00,2013-07-05 04:01:00,
2013-07-05 00:30:00,67.7,64.7,30.05,SE,127,0.0,0.0,90,0.00,,---,0.00,VWS V14.00,2013-07-05 04:30:00,
2013-07-05 00:31:00,67.7,64.7,30.05,SE,127,0.0,0.0,90,0.00,,---,0.00,VWS V14.00,2013-07-05 04:31:00,
2013-07-05 01:00:00,67.5,64.5,30.05,SE,127,0.0,0.0,90,0.00,,---,0.00,VWS V14.00,2013-07-05 05:00:00,
2013-07-05 01:01:00,67.5,64.5,30.05,SE,127,0.0,0.0,90,0.00,,---,0.00,VWS V14.00,2013-07-05 05:01:00,
2013-07-05 01:30:00,67.0,64.3,30.05,SE,127,0.0,0.0,91,0.00,,---,0.00,VWS V14.00,2013-07-05 05:30:00,
2013-07-05 01:31:00,67.0,64.3,30.05,SE,127,0.0,0.0,91,0.00,,---,0.00,VWS V14.00,2013-07-05 05:31:00,
2013-07-05 02:00:00,66.5,64.1,30.05,SE,127,0.0,0.0,92,0.00,,---,0.00,VWS V14.00,2013-07-05 06:00:00,
2013-07-05 02:01:00,66.5,64.1,30.05,SE,127,0.0,0.0,92,0.00,,---,0.00,VWS V14.00,2013-07-05 06:01:00,
2013-07-05 02:30:00,66.6,64.5,30.05,SE,127,0.0,0.0,93,0.00,,---,0.00,VWS V14.00,2013-07-05 06:30:00,
2013-07-05 02:31:00,66.6,64.5,30.05,SE,127,0.0,0.0,93,0.00,,---,0.00,VWS V14.00,2013-07-05 06:31:00,
2013-07-05 03:00:00,66.3,64.2,30.05,SE,127,0.0,0.0,93,0.00,,---,0.00,VWS V14.00,2013-07-05 07:00:00,
2013-07-05 03:01:00,66.3,64.2,30.05,SE,127,0.0,0.0,93,0.00,,---,0.00,VWS V14.00,2013-07-05 07:01:00,
2013-07-05 03:30:00,66.4,64.6,30.04,SE,127,0.0,0.0,94,0.00,,---,0.00,VWS V14.00,2013-07-05 07:30:00,
2013-07-05 03:31:00,66.4,64.6,30.04,SE,127,0.0,0.0,94,0.00,,---,0.00,VWS V14.00,2013-07-05 07:31:00,
2013-07-05 04:00:00,66.3,64.5,30.04,SE,127,0.0,0.0,94,0.00,,---,0.00,VWS V14.00,2013-07-05 08:00:00,
2013-07-05 04:01:00,66.3,64.5,30.04,SE,127,0.0,0.0,94,0.00,,---,0.00,VWS V14.00,2013-07-05 08:01:00,
2013-07-05 04:30:00,66.3,64.5,30.05,SE,127,0.0,0.0,94,0.00,,---,0.00,VWS V14.00,2013-07-05 08:30:00,
2013-07-05 04:31:00,66.3,64.5,30.05,SE,127,0.0,0.0,94,0.00,,---,0.00,VWS V14.00,2013-07-05 08:31:00,
2013-07-05 05:00:00,66.2,64.4,30.04,SE,127,0.0,0.0,94,0.00,,---,0.00,VWS V14.00,2013-07-05 09:00:00,
2013-07-05 05:01:00,66.2,64.4,30.04,SE,127,0.0,0.0,94,0.00,,---,0.00,VWS V14.00,2013-07-05 09:01:00,
2013-07-05 05:30:00,66.1,64.6,30.03,SE,127,0.0,0.0,95,0.00,,---,0.00,VWS V14.00,2013-07-05 09:30:00,
2013-07-05 05:31:00,66.1,64.6,30.03,SE,127,0.0,0.0,95,0.00,,---,0.00,VWS V14.00,2013-07-05 09:31:00,
2013-07-05 06:00:00,65.6,64.1,30.05,SE,127,0.0,0.0,95,0.00,,---,0.00,VWS V14.00,2013-07-05 10:00:00,
2013-07-05 06:01:00,65.6,64.1,30.05,SE,127,0.0,0.0,95,0.00,,---,0.00,VWS V14.00,2013-07-05 10:01:00,
2013-07-05 06:30:00,65.0,63.8,30.05,SE,127,0.0,0.0,96,0.00,,---,0.00,VWS V14.00,2013-07-05 10:30:00,
2013-07-05 07:00:00,64.9,63.7,30.05,SE,127,0.0,0.0,96,0.00,,---,0.00,VWS V14.00,2013-07-05 11:00:00,
2013-07-05 07:01:00,64.9,63.7,30.05,SE,127,0.0,0.0,96,0.00,,---,0.00,VWS V14.00,2013-07-05 11:01:00,
2013-07-05 07:30:00,65.7,64.8,30.06,SE,127,0.0,0.0,97,0.00,,---,0.00,VWS V14.00,2013-07-05 11:30:00,
2013-07-05 07:31:00,65.7,64.8,30.06,SE,127,0.0,0.0,97,0.00,,---,0.00,VWS V14.00,2013-07-05 11:31:00,
2013-07-05 08:00:00,67.8,66.3,30.06,SW,214,0.0,0.0,95,0.00,,---,0.00,VWS V14.00,2013-07-05 12:00:00,
2013-07-05 08:01:00,67.8,66.3,30.06,SW,214,0.0,0.0,95,0.00,,---,0.00,VWS V14.00,2013-07-05 12:01:00,
2013-07-05 08:30:00,69.3,66.9,30.07,West,270,1.0,2.0,92,0.00,,---,0.00,VWS V14.00,2013-07-05 12:30:00,
2013-07-05 09:00:00,70.6,68.2,30.08,West,271,1.0,3.0,92,0.00,,---,0.00,VWS V14.00,2013-07-05 13:00:00,
2013-07-05 09:01:00,70.6,68.2,30.08,West,271,1.0,3.0,92,0.00,,---,0.00,VWS V14.00,2013-07-05 13:01:00,
2013-07-05 09:30:00,71.8,68.7,30.09,West,271,2.0,4.0,90,0.00,,---,0.00,VWS V14.00,2013-07-05 13:30:00,
2013-07-05 10:00:00,72.1,69.0,30.09,West,267,2.0,4.0,90,0.00,,---,0.00,VWS V14.00,2013-07-05 14:00:00,
2013-07-05 10:01:00,72.1,69.0,30.09,West,267,2.0,4.0,90,0.00,,---,0.00,VWS V14.00,2013-07-05 14:01:00,
2013-07-05 10:30:00,72.6,69.2,30.09,SW,225,1.0,5.0,89,0.00,,---,0.00,VWS V14.00,2013-07-05 14:30:00,
2013-07-05 10:31:00,72.6,69.2,30.09,SW,225,1.0,5.0,89,0.00,,---,0.00,VWS V14.00,2013-07-05 14:31:00,
2013-07-05 11:00:00,72.5,68.8,30.09,West,266,1.0,5.0,88,0.00,,---,0.00,VWS V14.00,2013-07-05 15:00:00,
2013-07-05 11:30:00,74.1,69.3,30.08,NW,305,0.0,2.0,85,0.00,,---,0.00,VWS V14.00,2013-07-05 15:30:00,
2013-07-05 11:31:00,74.1,69.3,30.08,NW,305,0.0,2.0,85,0.00,,---,0.00,VWS V14.00,2013-07-05 15:31:00,
2013-07-05 12:00:00,74.5,69.3,30.08,West,270,1.0,5.0,84,0.00,,---,0.00,VWS V14.00,2013-07-05 16:00:00,
2013-07-05 12:01:00,74.5,69.3,30.08,West,270,1.0,5.0,84,0.00,,---,0.00,VWS V14.00,2013-07-05 16:01:00,
2013-07-05 12:30:00,75.0,68.8,30.08,West,273,1.0,5.0,81,0.00,,---,0.00,VWS V14.00,2013-07-05 16:30:00,
2013-07-05 12:31:00,75.0,68.8,30.08,West,273,1.0,5.0,81,0.00,,---,0.00,VWS V14.00,2013-07-05 16:31:00,
2013-07-05 13:00:00,76.1,69.1,30.08,WNW,287,0.0,2.0,79,0.00,,---,0.00,VWS V14.00,2013-07-05 17:00:00,
2013-07-05 13:01:00,76.1,69.1,30.08,WNW,287,0.0,2.0,79,0.00,,---,0.00,VWS V14.00,2013-07-05 17:01:00,
2013-07-05 13:30:00,77.1,70.8,30.07,WSW,257,0.0,4.0,81,0.00,,---,0.00,VWS V14.00,2013-07-05 17:30:00,
2013-07-05 13:31:00,77.1,70.8,30.07,WSW,257,0.0,4.0,81,0.00,,---,0.00,VWS V14.00,2013-07-05 17:31:00,
2013-07-05 14:00:00,78.8,69.4,30.07,West,270,4.0,7.0,73,0.00,,---,0.00,VWS V14.00,2013-07-05 18:00:00,
2013-07-05 14:01:00,78.8,69.4,30.07,West,270,4.0,7.0,73,0.00,,---,0.00,VWS V14.00,2013-07-05 18:01:00,
2013-07-05 14:30:00,78.9,69.5,30.06,West,271,2.0,7.0,73,0.00,,---,0.00,VWS V14.00,2013-07-05 18:30:00,
2013-07-05 14:31:00,78.9,69.5,30.06,West,271,2.0,7.0,73,0.00,,---,0.00,VWS V14.00,2013-07-05 18:31:00,
2013-07-05 15:00:00,80.6,67.3,30.06,WSW,255,2.0,7.0,64,0.00,,---,0.00,VWS V14.00,2013-07-05 19:00:00,
2013-07-05 15:01:00,80.6,67.3,30.06,WSW,255,2.0,7.0,64,0.00,,---,0.00,VWS V14.00,2013-07-05 19:01:00,
2013-07-05 15:30:00,79.8,68.3,30.06,West,278,1.0,7.0,68,0.00,,---,0.00,VWS V14.00,2013-07-05 19:30:00,
2013-07-05 15:31:00,79.8,68.3,30.06,West,278,1.0,7.0,68,0.00,,---,0.00,VWS V14.00,2013-07-05 19:31:00,
2013-07-05 16:00:00,82.1,68.3,30.05,West,269,3.0,5.0,63,0.00,,---,0.00,VWS V14.00,2013-07-05 20:00:00,
2013-07-05 16:01:00,82.1,68.3,30.05,West,269,3.0,5.0,63,0.00,,---,0.00,VWS V14.00,2013-07-05 20:01:00,
2013-07-05 16:30:00,81.7,68.3,30.03,West,265,1.0,6.0,64,0.00,,---,0.00,VWS V14.00,2013-07-05 20:30:00,
2013-07-05 16:31:00,81.7,68.3,30.03,West,265,1.0,6.0,64,0.00,,---,0.00,VWS V14.00,2013-07-05 20:31:00,
2013-07-05 17:00:00,80.8,68.4,30.04,East,93,1.0,6.0,66,0.00,,---,0.00,VWS V14.00,2013-07-05 21:00:00,
2013-07-05 17:01:00,80.8,68.4,30.04,East,93,1.0,6.0,66,0.00,,---,0.00,VWS V14.00,2013-07-05 21:01:00,
2013-07-05 17:30:00,82.3,69.8,30.04,SE,128,0.0,6.0,66,0.00,,---,0.00,VWS V14.00,2013-07-05 21:30:00,
2013-07-05 17:31:00,82.3,69.8,30.04,SE,128,0.0,6.0,66,0.00,,---,0.00,VWS V14.00,2013-07-05 21:31:00,
2013-07-05 18:00:00,83.0,69.1,30.03,WSW,252,5.0,5.0,63,0.00,,---,0.00,VWS V14.00,2013-07-05 22:00:00,
2013-07-05 18:01:00,83.0,69.1,30.03,WSW,252,5.0,5.0,63,0.00,,---,0.00,VWS V14.00,2013-07-05 22:01:00,
2013-07-05 18:30:00,81.5,69.9,30.01,SW,222,0.0,7.0,68,0.00,,---,0.00,VWS V14.00,2013-07-05 22:30:00,
2013-07-05 18:31:00,81.5,69.9,30.01,SW,222,0.0,7.0,68,0.00,,---,0.00,VWS V14.00,2013-07-05 22:31:00,
2013-07-05 19:00:00,81.7,69.7,30.01,West,259,2.0,3.0,67,0.00,,---,0.00,VWS V14.00,2013-07-05 23:00:00,
2013-07-05 19:01:00,81.7,69.7,30.01,West,259,2.0,3.0,67,0.00,,---,0.00,VWS V14.00,2013-07-05 23:01:00,
2013-07-05 19:30:00,80.9,69.4,30.02,WSW,256,0.0,5.0,68,0.00,,---,0.00,VWS V14.00,2013-07-05 23:30:00,
2013-07-05 19:31:00,80.9,69.4,30.02,WSW,256,0.0,5.0,68,0.00,,---,0.00,VWS V14.00,2013-07-05 23:31:00,
2013-07-05 20:00:00,80.3,69.6,30.02,SW,222,0.0,3.0,70,0.00,,---,0.00,VWS V14.00,2013-07-06 00:00:00,
2013-07-05 20:01:00,80.3,69.6,30.02,SW,222,0.0,3.0,70,0.00,,---,0.00,VWS V14.00,2013-07-06 00:01:00,
2013-07-05 20:30:00,79.3,69.9,30.02,ESE,112,0.0,1.0,73,0.00,,---,0.00,VWS V14.00,2013-07-06 00:30:00,
2013-07-05 21:00:00,76.4,69.0,30.02,ESE,112,0.0,0.0,78,0.00,,---,0.00,VWS V14.00,2013-07-06 01:00:00,
2013-07-05 21:30:00,73.7,68.2,30.02,ESE,112,0.0,0.0,83,0.00,,---,0.00,VWS V14.00,2013-07-06 01:30:00,
2013-07-05 22:00:00,76.4,69.0,30.02,ESE,112,0.0,0.0,78,0.00,,---,0.00,VWS V14.01,2013-07-06 02:00:00,
2013-07-05 22:30:00,71.5,68.1,30.04,ESE,122,0.0,0.0,89,0.00,,---,0.00,VWS V14.01,2013-07-06 02:30:00,
2013-07-05 22:31:00,71.5,68.1,30.04,ESE,122,0.0,0.0,89,0.00,,---,0.00,VWS V14.00,2013-07-06 02:31:00,
2013-07-05 23:00:00,71.0,67.9,30.05,ESE,122,0.0,1.0,90,0.00,,---,0.00,VWS V14.01,2013-07-06 03:00:00,
2013-07-05 23:01:00,71.0,67.9,30.05,ESE,122,0.0,1.0,90,0.00,,---,0.00,VWS V14.00,2013-07-06 03:01:00,
2013-07-05 23:30:00,70.5,67.8,30.05,ESE,122,0.0,1.0,91,0.00,,---,0.00,VWS V14.01,2013-07-06 03:30:00,
2013-07-05 23:31:00,70.5,67.8,30.05,ESE,122,0.0,1.0,91,0.00,,---,0.00,VWS V14.00,2013-07-06 03:31:00,